createdAt,value
2017-07-11T00:00:43.692Z,1008.69
2017-07-11T00:01:52.550Z,1008.69
2017-07-11T00:03:01.405Z,1008.69
2017-07-11T00:04:10.262Z,1008.74
2017-07-11T00:05:19.119Z,1008.72
2017-07-11T00:06:28.226Z,1008.78
2017-07-11T00:07:37.083Z,1008.79
2017-07-11T00:08:45.940Z,1008.82
2017-07-11T00:09:54.793Z,1008.86
2017-07-11T00:11:03.648Z,1008.84
2017-07-11T00:12:13.039Z,1008.84
2017-07-11T00:13:21.895Z,1008.86
2017-07-11T00:14:30.754Z,1008.89
2017-07-11T00:15:39.609Z,1008.86
2017-07-11T00:16:48.463Z,1008.83
2017-07-11T00:17:57.472Z,1008.79
2017-07-11T00:19:06.330Z,1008.82
2017-07-11T00:20:15.187Z,1008.8
2017-07-11T00:21:24.044Z,1008.75
2017-07-11T00:22:32.898Z,1008.72
2017-07-11T00:23:41.754Z,1008.73
2017-07-11T00:24:50.609Z,1008.73
2017-07-11T00:25:59.463Z,1008.76
2017-07-11T00:27:08.318Z,1008.75
2017-07-11T00:28:17.511Z,1008.79
2017-07-11T00:29:26.516Z,1008.83
2017-07-11T00:30:35.373Z,1008.78
2017-07-11T00:31:44.227Z,1008.79
2017-07-11T00:32:53.083Z,1008.76
2017-07-11T00:34:01.939Z,1008.75
2017-07-11T00:35:10.947Z,1008.77
2017-07-11T00:36:19.805Z,1008.71
2017-07-11T00:37:28.664Z,1008.69
2017-07-11T00:38:37.517Z,1008.65
2017-07-11T00:39:46.373Z,1008.65
2017-07-11T00:40:55.332Z,1008.64
2017-07-11T00:42:04.188Z,1008.61
2017-07-11T00:43:13.045Z,1008.62
2017-07-11T00:44:21.902Z,1008.64
2017-07-11T00:45:30.760Z,1008.67
2017-07-11T00:46:40.019Z,1008.69
2017-07-11T00:47:48.878Z,1008.68
2017-07-11T00:48:57.735Z,1008.65
2017-07-11T00:50:06.592Z,1008.64
2017-07-11T00:51:15.449Z,1008.61
2017-07-11T00:52:24.456Z,1008.62
2017-07-11T00:53:33.311Z,1008.61
2017-07-11T00:54:42.168Z,1008.61
2017-07-11T00:55:51.024Z,1008.62
2017-07-11T00:56:59.894Z,1008.62
2017-07-11T00:58:08.990Z,1008.59
2017-07-11T00:59:17.843Z,1008.6
2017-07-11T01:00:26.700Z,1008.59
2017-07-11T01:01:35.558Z,1008.67
2017-07-11T01:02:44.416Z,1008.65
2017-07-11T01:03:53.524Z,1008.62
2017-07-11T01:05:02.399Z,1008.61
2017-07-11T01:06:11.238Z,1008.62
2017-07-11T01:07:20.094Z,1008.61
2017-07-11T01:08:28.949Z,1008.55
2017-07-11T01:09:37.804Z,1008.52
2017-07-11T01:10:46.658Z,1008.54
2017-07-11T01:11:55.516Z,1008.55
2017-07-11T01:13:04.372Z,1008.52
2017-07-11T01:14:13.227Z,1008.54
2017-07-11T01:15:22.333Z,1008.57
2017-07-11T01:16:31.193Z,1008.58
2017-07-11T01:17:40.049Z,1008.61
2017-07-11T01:18:48.906Z,1008.63
2017-07-11T01:19:57.762Z,1008.72
2017-07-11T01:21:06.768Z,1008.69
2017-07-11T01:22:15.624Z,1008.72
2017-07-11T01:23:24.480Z,1008.74
2017-07-11T01:24:33.337Z,1008.79
2017-07-11T01:25:42.193Z,1008.79
2017-07-11T01:26:51.101Z,1008.76
2017-07-11T01:27:59.956Z,1008.81
2017-07-11T01:29:08.811Z,1008.78
2017-07-11T01:30:17.666Z,1008.78
2017-07-11T01:31:26.522Z,1008.81
2017-07-11T01:32:35.380Z,1008.8
2017-07-11T01:33:44.237Z,1008.84
2017-07-11T01:34:53.097Z,1008.84
2017-07-11T01:36:02.663Z,1008.82
2017-07-11T01:37:11.477Z,1008.83
2017-07-11T01:38:20.433Z,1008.86
2017-07-11T01:39:29.624Z,1008.84
2017-07-11T01:40:38.482Z,1008.82
2017-07-11T01:41:47.336Z,1008.82
2017-07-11T01:42:56.194Z,1008.92
2017-07-11T01:44:05.100Z,1008.91
2017-07-11T01:45:13.958Z,1008.99
2017-07-11T01:46:22.815Z,1009.01
2017-07-11T01:47:31.672Z,1009.03
2017-07-11T01:48:40.528Z,1009
2017-07-11T01:49:49.585Z,1009
2017-07-11T01:50:58.443Z,1009
2017-07-11T01:52:07.298Z,1008.97
2017-07-11T01:53:16.156Z,1008.98
2017-07-11T01:54:25.013Z,1008.97
2017-07-11T01:55:33.923Z,1008.97
2017-07-11T01:56:42.776Z,1009.03
2017-07-11T01:57:51.632Z,1009.04
2017-07-11T01:59:00.486Z,1009.03
2017-07-11T02:00:09.342Z,1009.03
2017-07-11T02:01:18.500Z,1009.02
2017-07-11T02:02:27.354Z,1009
2017-07-11T02:03:36.211Z,1008.98
2017-07-11T02:04:45.068Z,1009.04
2017-07-11T02:05:53.925Z,1009.05
2017-07-11T02:07:03.181Z,1009.06
2017-07-11T02:08:12.035Z,1009.06
2017-07-11T02:09:20.891Z,1009.05
2017-07-11T02:10:29.749Z,1008.99
2017-07-11T02:11:38.604Z,1008.99
2017-07-11T02:12:47.611Z,1009.01
2017-07-11T02:13:56.468Z,1008.99
2017-07-11T02:15:05.322Z,1008.95
2017-07-11T02:16:14.178Z,1008.95
2017-07-11T02:17:23.035Z,1008.93
2017-07-11T02:18:32.292Z,1008.92
2017-07-11T02:19:41.149Z,1008.93
2017-07-11T02:20:50.007Z,1008.91
2017-07-11T02:21:59.198Z,1008.91
2017-07-11T02:23:08.051Z,1008.87
2017-07-11T02:24:17.159Z,1008.85
2017-07-11T02:25:26.016Z,1008.82
2017-07-11T02:26:34.875Z,1008.8
2017-07-11T02:27:43.728Z,1008.76
2017-07-11T02:28:52.582Z,1008.78
2017-07-11T02:30:01.437Z,1008.76
2017-07-11T02:31:10.292Z,1008.73
2017-07-11T02:32:19.149Z,1008.79
2017-07-11T02:33:28.005Z,1008.75
2017-07-11T02:34:36.862Z,1008.73
2017-07-11T02:35:45.916Z,1008.72
2017-07-11T02:36:54.771Z,1008.76
2017-07-11T02:38:03.625Z,1008.78
2017-07-11T02:39:12.480Z,1008.8
2017-07-11T02:40:21.337Z,1008.78
2017-07-11T02:41:30.343Z,1008.75
2017-07-11T02:42:39.531Z,1008.72
2017-07-11T02:43:48.384Z,1008.74
2017-07-11T02:44:57.241Z,1008.73
2017-07-11T02:46:06.097Z,1008.8
2017-07-11T02:47:15.105Z,1008.72
2017-07-11T02:48:23.960Z,1008.76
2017-07-11T02:49:32.816Z,1008.79
2017-07-11T02:50:41.688Z,1008.75
2017-07-11T02:51:50.875Z,1008.74
2017-07-11T02:52:59.780Z,1008.78
2017-07-11T02:54:08.635Z,1008.75
2017-07-11T02:55:17.831Z,1008.74
2017-07-11T02:56:26.689Z,1008.73
2017-07-11T02:57:35.546Z,1008.72
2017-07-11T02:58:44.552Z,1008.68
2017-07-11T02:59:53.408Z,1008.72
2017-07-11T03:01:02.262Z,1008.72
2017-07-11T03:02:11.120Z,1008.72
2017-07-11T03:03:19.977Z,1008.76
2017-07-11T03:04:29.084Z,1008.73
2017-07-11T03:05:37.938Z,1008.71
2017-07-11T03:06:46.792Z,1008.72
2017-07-11T03:07:55.651Z,1008.71
2017-07-11T03:09:04.508Z,1008.71
2017-07-11T03:10:13.365Z,1008.69
2017-07-11T03:11:22.221Z,1008.68
2017-07-11T03:12:31.078Z,1008.67
2017-07-11T03:13:39.934Z,1008.73
2017-07-11T03:14:48.789Z,1008.73
2017-07-11T03:15:57.695Z,1008.73
2017-07-11T03:17:06.551Z,1008.72
2017-07-11T03:18:15.410Z,1008.76
2017-07-11T03:19:24.266Z,1008.73
2017-07-11T03:20:33.123Z,1008.76
2017-07-11T03:21:42.128Z,1008.69
2017-07-11T03:22:50.983Z,1008.67
2017-07-11T03:23:59.839Z,1008.68
2017-07-11T03:25:08.698Z,1008.68
2017-07-11T03:26:17.887Z,1008.66
2017-07-11T03:27:26.793Z,1008.65
2017-07-11T03:28:35.650Z,1008.68
2017-07-11T03:29:44.507Z,1008.68
2017-07-11T03:30:53.363Z,1008.67
2017-07-11T03:32:02.221Z,1008.64
2017-07-11T03:33:11.228Z,1008.59
2017-07-11T03:34:20.084Z,1008.62
2017-07-11T03:35:28.940Z,1008.63
2017-07-11T03:36:37.797Z,1008.62
2017-07-11T03:37:46.654Z,1008.67
2017-07-11T03:38:55.910Z,1008.67
2017-07-11T03:40:04.766Z,1008.7
2017-07-11T03:41:13.624Z,1008.68
2017-07-11T03:42:22.479Z,1008.7
2017-07-11T03:43:31.336Z,1008.68
2017-07-11T03:44:40.343Z,1008.67
2017-07-11T03:45:49.199Z,1008.66
2017-07-11T03:46:58.056Z,1008.67
2017-07-11T03:48:07.249Z,1008.67
2017-07-11T03:49:16.106Z,1008.71
2017-07-11T03:50:25.014Z,1008.71
2017-07-11T03:51:33.871Z,1008.71
2017-07-11T03:52:43.064Z,1008.72
2017-07-11T03:53:51.924Z,1008.71
2017-07-11T03:55:00.779Z,1008.72
2017-07-11T03:56:09.786Z,1008.73
2017-07-11T03:57:18.643Z,1008.72
2017-07-11T03:58:27.499Z,1008.74
2017-07-11T03:59:36.355Z,1008.74
2017-07-11T04:00:45.212Z,1008.75
2017-07-11T04:01:54.218Z,1008.75
2017-07-11T04:03:03.074Z,1008.76
2017-07-11T04:04:11.934Z,1008.73
2017-07-11T04:05:20.791Z,1008.77
2017-07-11T04:06:29.645Z,1008.77
2017-07-11T04:07:38.550Z,1008.82
2017-07-11T04:08:47.409Z,1008.77
2017-07-11T04:09:56.266Z,1008.77
2017-07-11T04:11:05.123Z,1008.76
2017-07-11T04:12:13.978Z,1008.76
2017-07-11T04:13:23.035Z,1008.74
2017-07-11T04:14:31.892Z,1008.75
2017-07-11T04:15:40.749Z,1008.72
2017-07-11T04:16:49.604Z,1008.71
2017-07-11T04:17:58.797Z,1008.71
2017-07-11T04:19:07.703Z,1008.68
2017-07-11T04:20:16.559Z,1008.66
2017-07-11T04:21:25.412Z,1008.68
2017-07-11T04:22:34.278Z,1008.68
2017-07-11T04:23:43.134Z,1008.71
2017-07-11T04:24:52.143Z,1008.72
2017-07-11T04:26:01.000Z,1008.75
2017-07-11T04:27:09.855Z,1008.75
2017-07-11T04:28:18.708Z,1008.77
2017-07-11T04:29:27.569Z,1008.7
2017-07-11T04:30:36.521Z,1008.75
2017-07-11T04:31:45.427Z,1008.74
2017-07-11T04:32:54.235Z,1008.74
2017-07-11T04:34:03.093Z,1008.78
2017-07-11T04:35:11.949Z,1008.77
2017-07-11T04:36:20.854Z,1008.79
2017-07-11T04:37:29.712Z,1008.81
2017-07-11T04:38:38.569Z,1008.85
2017-07-11T04:39:47.425Z,1008.85
2017-07-11T04:40:56.280Z,1008.88
2017-07-11T04:42:05.386Z,1008.91
2017-07-11T04:43:14.244Z,1008.88
2017-07-11T04:44:23.101Z,1008.88
2017-07-11T04:45:31.955Z,1008.93
2017-07-11T04:46:40.813Z,1008.92
2017-07-11T04:47:49.770Z,1008.98
2017-07-11T04:48:58.626Z,1008.95
2017-07-11T04:50:07.487Z,1008.97
2017-07-11T04:51:16.677Z,1008.98
2017-07-11T04:52:25.533Z,1009.02
2017-07-11T04:53:34.591Z,1009.05
2017-07-11T04:54:43.449Z,1009.05
2017-07-11T04:55:52.305Z,1009.05
2017-07-11T04:57:01.163Z,1009.1
2017-07-11T04:58:10.020Z,1009.08
2017-07-11T04:59:19.025Z,1009.09
2017-07-11T05:00:27.883Z,1009.06
2017-07-11T05:01:36.740Z,1009.05
2017-07-11T05:02:45.597Z,1009.06
2017-07-11T05:03:54.455Z,1009
2017-07-11T05:05:03.462Z,1009.04
2017-07-11T05:06:12.319Z,1009.06
2017-07-11T05:07:21.177Z,1009.06
2017-07-11T05:08:30.031Z,1009.02
2017-07-11T05:09:38.887Z,1009.06
2017-07-11T05:10:47.843Z,1009.03
2017-07-11T05:11:56.699Z,1009.04
2017-07-11T05:13:05.558Z,1009.05
2017-07-11T05:14:14.415Z,1009.09
2017-07-11T05:15:23.271Z,1009.11
2017-07-11T05:16:32.129Z,1009.03
2017-07-11T05:17:40.986Z,1009.05
2017-07-11T05:18:49.843Z,1009.06
2017-07-11T05:19:58.700Z,1009
2017-07-11T05:21:07.555Z,1009.02
2017-07-11T05:22:16.461Z,1009.04
2017-07-11T05:23:25.316Z,1009.03
2017-07-11T05:24:34.173Z,1009.05
2017-07-11T05:25:43.361Z,1009.11
2017-07-11T05:26:52.216Z,1009.08
2017-07-11T05:28:01.374Z,1009.05
2017-07-11T05:29:10.238Z,1009.08
2017-07-11T05:30:19.092Z,1009.04
2017-07-11T05:31:27.949Z,1009.08
2017-07-11T05:32:36.806Z,1009.1
2017-07-11T05:33:45.914Z,1009.05
2017-07-11T05:34:54.771Z,1009.11
2017-07-11T05:36:03.966Z,1009.06
2017-07-11T05:37:12.825Z,1009.07
2017-07-11T05:38:21.680Z,1009.09
2017-07-11T05:39:30.587Z,1009.07
2017-07-11T05:40:39.445Z,1009.1
2017-07-11T05:41:48.306Z,1009.09
2017-07-11T05:42:57.158Z,1009.08
2017-07-11T05:44:06.014Z,1009.1
2017-07-11T05:45:14.971Z,1009.1
2017-07-11T05:46:23.828Z,1009.14
2017-07-11T05:47:32.683Z,1009.11
2017-07-11T05:48:41.539Z,1009.07
2017-07-11T05:49:50.398Z,1009.1
2017-07-11T05:50:59.253Z,1009.1
2017-07-11T05:52:08.113Z,1009.1
2017-07-11T05:53:16.972Z,1009.12
2017-07-11T05:54:25.828Z,1009.13
2017-07-11T05:55:34.687Z,1009.12
2017-07-11T05:56:43.695Z,1009.09
2017-07-11T05:57:52.555Z,1009.11
2017-07-11T05:59:01.413Z,1009.08
2017-07-11T06:00:10.271Z,1009.09
2017-07-11T06:01:19.127Z,1009.13
2017-07-11T06:02:28.087Z,1009.09
2017-07-11T06:03:36.945Z,1009.07
2017-07-11T06:04:45.804Z,1009.07
2017-07-11T06:05:54.662Z,1009.06
2017-07-11T06:07:03.520Z,1009.09
2017-07-11T06:08:12.578Z,1009.11
2017-07-11T06:09:21.437Z,1009.12
2017-07-11T06:10:30.295Z,1009.15
2017-07-11T06:11:39.153Z,1009.14
2017-07-11T06:12:48.010Z,1009.16
2017-07-11T06:13:57.067Z,1009.14
2017-07-11T06:15:05.925Z,1009.13
2017-07-11T06:16:14.784Z,1009.17
2017-07-11T06:17:23.642Z,1009.22
2017-07-11T06:18:32.499Z,1009.24
2017-07-11T06:19:41.358Z,1009.24
2017-07-11T06:20:50.546Z,1009.22
2017-07-11T06:21:59.404Z,1009.24
2017-07-11T06:23:08.265Z,1009.22
2017-07-11T06:24:17.124Z,1009.21
2017-07-11T06:25:26.034Z,1009.28
2017-07-11T06:26:34.944Z,1009.28
2017-07-11T06:27:43.812Z,1009.32
2017-07-11T06:28:52.669Z,1009.33
2017-07-11T06:30:01.546Z,1009.33
2017-07-11T06:31:10.404Z,1009.33
2017-07-11T06:32:19.597Z,1009.36
2017-07-11T06:33:28.787Z,1009.33
2017-07-11T06:34:37.644Z,1009.37
2017-07-11T06:35:46.504Z,1009.4
2017-07-11T06:36:55.612Z,1009.37
2017-07-11T06:38:04.471Z,1009.35
2017-07-11T06:39:13.328Z,1009.37
2017-07-11T06:40:22.188Z,1009.37
2017-07-11T06:41:31.376Z,1009.42
2017-07-11T06:42:40.433Z,1009.45
2017-07-11T06:43:49.292Z,1009.4
2017-07-11T06:44:58.152Z,1009.42
2017-07-11T06:46:07.012Z,1009.41
2017-07-11T06:47:15.866Z,1009.44
2017-07-11T06:48:24.976Z,1009.46
2017-07-11T06:49:33.833Z,1009.45
2017-07-11T06:50:42.698Z,1009.39
2017-07-11T06:51:51.550Z,1009.42
2017-07-11T06:53:00.408Z,1009.39
2017-07-11T06:54:09.415Z,1009.41
2017-07-11T06:55:18.273Z,1009.38
2017-07-11T06:56:27.131Z,1009.44
2017-07-11T06:57:35.990Z,1009.4
2017-07-11T06:58:44.849Z,1009.42
2017-07-11T06:59:53.960Z,1009.38
2017-07-11T07:01:02.816Z,1009.39
2017-07-11T07:02:11.673Z,1009.38
2017-07-11T07:03:20.532Z,1009.4
2017-07-11T07:04:29.391Z,1009.41
2017-07-11T07:05:38.351Z,1009.43
2017-07-11T07:06:47.210Z,1009.4
2017-07-11T07:07:56.068Z,1009.44
2017-07-11T07:09:04.925Z,1009.46
2017-07-11T07:10:13.782Z,1009.44
2017-07-11T07:11:22.740Z,1009.43
2017-07-11T07:12:31.932Z,1009.44
2017-07-11T07:13:40.790Z,1009.47
2017-07-11T07:14:49.647Z,1009.46
2017-07-11T07:15:58.509Z,1009.5
2017-07-11T07:17:07.513Z,1009.53
2017-07-11T07:18:16.372Z,1009.48
2017-07-11T07:19:25.230Z,1009.54
2017-07-11T07:20:34.090Z,1009.5
2017-07-11T07:21:42.949Z,1009.52
2017-07-11T07:22:51.955Z,1009.48
2017-07-11T07:24:00.813Z,1009.48
2017-07-11T07:25:09.674Z,1009.47
2017-07-11T07:26:18.866Z,1009.47
2017-07-11T07:27:27.728Z,1009.51
2017-07-11T07:28:36.887Z,1009.44
2017-07-11T07:29:45.745Z,1009.47
2017-07-11T07:30:54.607Z,1009.46
2017-07-11T07:32:03.466Z,1009.47
2017-07-11T07:33:12.323Z,1009.48
2017-07-11T07:34:21.333Z,1009.52
2017-07-11T07:35:30.525Z,1009.54
2017-07-11T07:36:39.383Z,1009.5
2017-07-11T07:37:48.241Z,1009.55
2017-07-11T07:38:57.436Z,1009.46
2017-07-11T07:40:06.445Z,1009.53
2017-07-11T07:41:15.307Z,1009.54
2017-07-11T07:42:24.164Z,1009.5
2017-07-11T07:43:33.371Z,1009.54
2017-07-11T07:44:42.562Z,1009.5
2017-07-11T07:45:51.569Z,1009.5
2017-07-11T07:47:00.429Z,1009.48
2017-07-11T07:48:09.288Z,1009.49
2017-07-11T07:49:18.146Z,1009.5
2017-07-11T07:50:27.008Z,1009.53
2017-07-11T07:51:35.913Z,1009.61
2017-07-11T07:52:44.770Z,1009.55
2017-07-11T07:53:53.630Z,1009.53
2017-07-11T07:55:02.490Z,1009.53
2017-07-11T07:56:11.353Z,1009.52
2017-07-11T07:57:20.365Z,1009.52
2017-07-11T07:58:29.227Z,1009.51
2017-07-11T07:59:38.139Z,1009.52
2017-07-11T08:00:46.949Z,1009.57
2017-07-11T08:01:55.809Z,1009.52
2017-07-11T08:03:04.817Z,1009.5
2017-07-11T08:04:13.682Z,1009.55
2017-07-11T08:05:22.541Z,1009.55
2017-07-11T08:06:31.404Z,1009.55
2017-07-11T08:07:40.264Z,1009.51
2017-07-11T08:08:49.273Z,1009.52
2017-07-11T08:09:58.132Z,1009.55
2017-07-11T08:11:06.994Z,1009.53
2017-07-11T08:12:15.854Z,1009.54
2017-07-11T08:13:24.714Z,1009.56
2017-07-11T08:14:33.791Z,1009.6
2017-07-11T08:15:42.652Z,1009.56
2017-07-11T08:16:51.515Z,1009.55
2017-07-11T08:18:00.374Z,1009.52
2017-07-11T08:19:09.235Z,1009.53
2017-07-11T08:20:18.450Z,1009.48
2017-07-11T08:21:27.309Z,1009.43
2017-07-11T08:22:36.174Z,1009.5
2017-07-11T08:23:45.029Z,1009.53
2017-07-11T08:24:53.889Z,1009.49
2017-07-11T08:26:02.899Z,1009.53
2017-07-11T08:27:11.759Z,1009.54
2017-07-11T08:28:20.619Z,1009.49
2017-07-11T08:29:29.476Z,1009.47
2017-07-11T08:30:38.336Z,1009.46
2017-07-11T08:31:47.598Z,1009.47
2017-07-11T08:32:56.460Z,1009.49
2017-07-11T08:34:05.320Z,1009.45
2017-07-11T08:35:14.181Z,1009.45
2017-07-11T08:36:23.043Z,1009.53
2017-07-11T08:37:32.153Z,1009.49
2017-07-11T08:38:41.015Z,1009.46
2017-07-11T08:39:49.876Z,1009.53
2017-07-11T08:40:58.736Z,1009.5
2017-07-11T08:42:07.597Z,1009.62
2017-07-11T08:43:16.555Z,1009.58
2017-07-11T08:44:25.416Z,1009.58
2017-07-11T08:45:34.277Z,1009.6
2017-07-11T08:46:43.137Z,1009.59
2017-07-11T08:47:52.000Z,1009.6
2017-07-11T08:49:01.012Z,1009.62
2017-07-11T08:50:09.872Z,1009.6
2017-07-11T08:51:18.734Z,1009.63
2017-07-11T08:52:27.596Z,1009.6
2017-07-11T08:53:36.456Z,1009.6
2017-07-11T08:54:45.318Z,1009.6
2017-07-11T08:55:54.180Z,1009.52
2017-07-11T08:57:03.039Z,1009.6
2017-07-11T08:58:11.905Z,1009.58
2017-07-11T08:59:20.764Z,1009.61
2017-07-11T09:00:29.675Z,1009.6
2017-07-11T09:01:38.541Z,1009.63
2017-07-11T09:02:47.399Z,1009.6
2017-07-11T09:03:56.263Z,1009.58
2017-07-11T09:05:05.124Z,1009.6
2017-07-11T09:06:14.056Z,1009.55
2017-07-11T09:07:22.915Z,1009.62
2017-07-11T09:08:31.777Z,1009.62
2017-07-11T09:09:40.640Z,1009.64
2017-07-11T09:10:49.835Z,1009.64
2017-07-11T09:11:58.946Z,1009.63
2017-07-11T09:13:08.140Z,1009.63
2017-07-11T09:14:17.000Z,1009.66
2017-07-11T09:15:25.861Z,1009.68
2017-07-11T09:16:34.720Z,1009.67
2017-07-11T09:17:43.730Z,1009.67
2017-07-11T09:18:52.592Z,1009.69
2017-07-11T09:20:01.454Z,1009.74
2017-07-11T09:21:10.315Z,1009.71
2017-07-11T09:22:19.173Z,1009.65
2017-07-11T09:23:28.286Z,1009.66
2017-07-11T09:24:37.148Z,1009.69
2017-07-11T09:25:46.010Z,1009.74
2017-07-11T09:26:54.870Z,1009.7
2017-07-11T09:28:03.729Z,1009.8
2017-07-11T09:29:12.590Z,1009.8
2017-07-11T09:30:21.452Z,1009.82
2017-07-11T09:31:30.315Z,1009.85
2017-07-11T09:32:39.176Z,1009.81
2017-07-11T09:33:48.034Z,1009.78
2017-07-11T09:34:57.046Z,1009.82
2017-07-11T09:36:05.906Z,1009.84
2017-07-11T09:37:14.764Z,1009.82
2017-07-11T09:38:23.624Z,1009.82
2017-07-11T09:39:32.485Z,1009.85
2017-07-11T09:40:41.595Z,1009.8
2017-07-11T09:41:50.457Z,1009.89
2017-07-11T09:42:59.315Z,1009.89
2017-07-11T09:44:08.173Z,1009.91
2017-07-11T09:45:17.034Z,1009.94
2017-07-11T09:46:26.198Z,1009.94
2017-07-11T09:47:35.055Z,1009.9
2017-07-11T09:48:43.958Z,1009.92
2017-07-11T09:49:52.775Z,1009.92
2017-07-11T09:51:01.636Z,1009.94
2017-07-11T09:52:10.497Z,1009.91
2017-07-11T09:53:19.358Z,1009.94
2017-07-11T09:54:28.216Z,1010.01
2017-07-11T09:55:37.075Z,1010
2017-07-11T09:56:45.935Z,1010.06
2017-07-11T09:57:55.046Z,1010.04
2017-07-11T09:59:03.905Z,1010.01
2017-07-11T10:00:12.765Z,1010.05
2017-07-11T10:01:21.626Z,1010.06
2017-07-11T10:02:30.487Z,1010.03
2017-07-11T10:03:39.398Z,1010.07
2017-07-11T10:04:48.259Z,1010.05
2017-07-11T10:05:57.120Z,1010.03
2017-07-11T10:07:05.980Z,1010.03
2017-07-11T10:08:14.842Z,1010
2017-07-11T10:09:23.956Z,1010.02
2017-07-11T10:10:32.817Z,1010.04
2017-07-11T10:11:41.678Z,1010.02
2017-07-11T10:12:50.540Z,1010.01
2017-07-11T10:13:59.400Z,1010.03
2017-07-11T10:15:08.609Z,1010.05
2017-07-11T10:16:17.420Z,1010.08
2017-07-11T10:17:26.285Z,1010.09
2017-07-11T10:18:35.145Z,1010.08
2017-07-11T10:19:44.007Z,1010.09
2017-07-11T10:20:52.967Z,1010.16
2017-07-11T10:22:01.827Z,1010.13
2017-07-11T10:23:10.688Z,1010.1
2017-07-11T10:24:19.551Z,1010.08
2017-07-11T10:25:28.413Z,1010.14
2017-07-11T10:26:37.423Z,1010.13
2017-07-11T10:27:46.285Z,1010.11
2017-07-11T10:28:55.147Z,1010.12
2017-07-11T10:30:04.007Z,1010.02
2017-07-11T10:31:12.866Z,1010.15
2017-07-11T10:32:21.778Z,1010.07
2017-07-11T10:33:30.637Z,1010.16
2017-07-11T10:34:39.499Z,1010.04
2017-07-11T10:35:48.362Z,1010.05
2017-07-11T10:36:57.224Z,1010.03
2017-07-11T10:38:06.134Z,1010.01
2017-07-11T10:39:14.994Z,1010.04
2017-07-11T10:40:23.856Z,1010.12
2017-07-11T10:41:32.716Z,1010.14
2017-07-11T10:42:41.577Z,1010.14
2017-07-11T10:43:50.437Z,1010.12
2017-07-11T10:44:59.301Z,1010.14
2017-07-11T10:46:08.162Z,1010.14
2017-07-11T10:47:17.022Z,1010.18
2017-07-11T10:48:25.884Z,1010.12
2017-07-11T10:49:34.843Z,1010.12
2017-07-11T10:50:43.706Z,1010.13
2017-07-11T10:51:52.568Z,1010.1
2017-07-11T10:53:01.430Z,1010.04
2017-07-11T10:54:10.290Z,1010.07
2017-07-11T10:55:19.452Z,1010.14
2017-07-11T10:56:28.313Z,1010.07
2017-07-11T10:57:37.177Z,1010.06
2017-07-11T10:58:46.037Z,1010.04
2017-07-11T10:59:54.899Z,1010.05
2017-07-11T11:01:03.961Z,1010.04
2017-07-11T11:02:12.821Z,1010.01
2017-07-11T11:03:21.683Z,1010.05
2017-07-11T11:04:30.546Z,1010.03
2017-07-11T11:05:39.407Z,1010.09
2017-07-11T11:06:48.747Z,1010.12
2017-07-11T11:07:57.608Z,1010.11
2017-07-11T11:09:06.471Z,1010.13
2017-07-11T11:10:15.330Z,1010.17
2017-07-11T11:11:24.190Z,1010.14
2017-07-11T11:12:33.152Z,1010.13
2017-07-11T11:13:42.016Z,1010.17
2017-07-11T11:14:50.877Z,1010.19
2017-07-11T11:15:59.738Z,1010.14
2017-07-11T11:17:08.596Z,1010.18
2017-07-11T11:18:17.508Z,1010.13
2017-07-11T11:19:26.368Z,1010.2
2017-07-11T11:20:35.233Z,1010.23
2017-07-11T11:21:44.096Z,1010.23
2017-07-11T11:22:52.956Z,1010.26
2017-07-11T11:24:02.069Z,1010.22
2017-07-11T11:25:11.268Z,1010.19
2017-07-11T11:26:20.130Z,1010.19
2017-07-11T11:27:28.988Z,1010.23
2017-07-11T11:28:37.851Z,1010.19
2017-07-11T11:29:46.963Z,1010.23
2017-07-11T11:30:55.826Z,1010.22
2017-07-11T11:32:05.022Z,1010.28
2017-07-11T11:33:13.887Z,1010.25
2017-07-11T11:34:22.745Z,1010.3
2017-07-11T11:35:31.809Z,1010.25
2017-07-11T11:36:40.674Z,1010.19
2017-07-11T11:37:49.541Z,1010.28
2017-07-11T11:38:58.406Z,1010.28
2017-07-11T11:40:07.269Z,1010.27
2017-07-11T11:41:16.617Z,1010.29
2017-07-11T11:42:25.814Z,1010.29
2017-07-11T11:43:34.678Z,1010.3
2017-07-11T11:44:43.541Z,1010.26
2017-07-11T11:45:52.409Z,1010.23
2017-07-11T11:47:01.515Z,1010.3
2017-07-11T11:48:10.377Z,1010.3
2017-07-11T11:49:19.241Z,1010.3
2017-07-11T11:50:28.104Z,1010.3
2017-07-11T11:51:36.967Z,1010.24
2017-07-11T11:52:45.987Z,1010.26
2017-07-11T11:53:54.850Z,1010.25
2017-07-11T11:55:03.714Z,1010.26
2017-07-11T11:56:12.579Z,1010.21
2017-07-11T11:57:21.442Z,1010.29
2017-07-11T11:58:30.459Z,1010.26
2017-07-11T11:59:39.321Z,1010.29
2017-07-11T12:00:48.182Z,1010.29
2017-07-11T12:01:57.046Z,1010.26
2017-07-11T12:03:05.910Z,1010.23
2017-07-11T12:04:15.024Z,1010.27
2017-07-11T12:05:23.889Z,1010.3
2017-07-11T12:06:32.755Z,1010.27
2017-07-11T12:07:41.622Z,1010.28
2017-07-11T12:08:50.490Z,1010.31
2017-07-11T12:09:59.942Z,1010.39
2017-07-11T12:11:08.808Z,1010.32
2017-07-11T12:12:17.677Z,1010.39
2017-07-11T12:13:26.543Z,1010.43
2017-07-11T12:14:35.742Z,1010.45
2017-07-11T12:15:44.854Z,1010.4
2017-07-11T12:16:53.723Z,1010.42
2017-07-11T12:18:02.591Z,1010.41
2017-07-11T12:19:11.460Z,1010.44
2017-07-11T12:20:20.328Z,1010.43
2017-07-11T12:21:29.199Z,1010.46
2017-07-11T12:22:38.062Z,1010.36
2017-07-11T12:23:46.932Z,1010.37
2017-07-11T12:24:55.798Z,1010.38
2017-07-11T12:26:04.665Z,1010.29
2017-07-11T12:27:13.534Z,1010.36
2017-07-11T12:28:22.740Z,1010.44
2017-07-11T12:29:31.608Z,1010.42
2017-07-11T12:30:40.480Z,1010.37
2017-07-11T12:31:49.349Z,1010.42
2017-07-11T12:32:58.269Z,1010.33
2017-07-11T12:34:07.471Z,1010.38
2017-07-11T12:35:16.341Z,1010.43
2017-07-11T12:36:25.217Z,1010.4
2017-07-11T12:37:34.082Z,1010.31
2017-07-11T12:38:43.007Z,1010.47
2017-07-11T12:39:51.875Z,1010.51
2017-07-11T12:41:00.744Z,1010.48
2017-07-11T12:42:09.611Z,1010.52
2017-07-11T12:43:18.477Z,1010.57
2017-07-11T12:44:27.392Z,1010.67
2017-07-11T12:45:36.256Z,1010.57
2017-07-11T12:46:45.123Z,1010.75
2017-07-11T12:47:53.991Z,1010.68
2017-07-11T12:49:02.857Z,1010.71
2017-07-11T12:50:11.823Z,1010.66
2017-07-11T12:51:20.688Z,1010.71
2017-07-11T12:52:29.552Z,1010.72
2017-07-11T12:53:38.468Z,1010.76
2017-07-11T12:54:47.331Z,1010.73
2017-07-11T12:55:56.684Z,1010.74
2017-07-11T12:57:05.548Z,1010.84
2017-07-11T12:58:14.414Z,1010.72
2017-07-11T12:59:23.280Z,1010.83
2017-07-11T13:00:32.160Z,1010.62
2017-07-11T13:01:41.214Z,1010.63
2017-07-11T13:02:50.080Z,1010.62
2017-07-11T13:03:58.953Z,1010.55
2017-07-11T13:05:07.820Z,1010.55
2017-07-11T13:06:16.686Z,1010.6
2017-07-11T13:07:25.698Z,1010.63
2017-07-11T13:08:34.562Z,1010.65
2017-07-11T13:09:43.436Z,1010.53
2017-07-11T13:10:52.299Z,1010.62
2017-07-11T13:12:01.164Z,1010.63
2017-07-11T13:13:10.139Z,1010.57
2017-07-11T13:14:18.990Z,1010.63
2017-07-11T13:15:27.851Z,1010.61
2017-07-11T13:16:36.714Z,1010.58
2017-07-11T13:17:45.577Z,1010.64
2017-07-11T13:18:54.588Z,1010.66
2017-07-11T13:20:03.450Z,1010.68
2017-07-11T13:21:12.312Z,1010.64
2017-07-11T13:22:21.173Z,1010.65
2017-07-11T13:23:30.034Z,1010.6
2017-07-11T13:24:38.994Z,1010.64
2017-07-11T13:25:47.855Z,1010.53
2017-07-11T13:26:56.718Z,1010.56
2017-07-11T13:28:05.580Z,1010.61
2017-07-11T13:29:14.443Z,1010.56
2017-07-11T13:30:23.686Z,1010.56
2017-07-11T13:31:32.552Z,1010.59
2017-07-11T13:32:41.746Z,1010.56
2017-07-11T13:33:50.605Z,1010.56
2017-07-11T13:34:59.465Z,1010.56
2017-07-11T13:36:08.528Z,1010.6
2017-07-11T13:37:17.388Z,1010.56
2017-07-11T13:38:26.246Z,1010.57
2017-07-11T13:39:35.106Z,1010.6
2017-07-11T13:40:43.967Z,1010.62
2017-07-11T13:41:52.979Z,1010.6
2017-07-11T13:43:01.852Z,1010.75
2017-07-11T13:44:10.723Z,1010.77
2017-07-11T13:45:19.579Z,1010.79
2017-07-11T13:46:28.441Z,1010.78
2017-07-11T13:47:37.603Z,1010.73
2017-07-11T13:48:46.505Z,1010.76
2017-07-11T13:49:55.366Z,1010.8
2017-07-11T13:51:04.235Z,1010.86
2017-07-11T13:52:13.117Z,1010.83
2017-07-11T13:53:22.138Z,1010.82
2017-07-11T13:54:31.006Z,1010.86
2017-07-11T13:55:39.884Z,1010.79
2017-07-11T13:56:48.756Z,1010.79